sensor_id;sensor_type;location;lat;lon;timestamp;P1;durP1;ratioP1;P2;durP2;ratioP2
1955;SDS011;978;48.314;11.562;2022-12-26T00:02:28;8.53;;;0.80;;
1955;SDS011;978;48.314;11.562;2022-12-26T00:04:55;8.83;;;0.80;;
1955;SDS011;978;48.314;11.562;2022-12-26T00:07:23;8.70;;;1.00;;
1955;SDS011;978;48.314;11.562;2022-12-26T00:09:51;8.87;;;1.20;;
1955;SDS011;978;48.314;11.562;2022-12-26T00:12:19;9.97;;;1.60;;
1955;SDS011;978;48.314;11.562;2022-12-26T00:14:49;9.23;;;1.27;;
1955;SDS011;978;48.314;11.562;2022-12-26T00:17:21;9.03;;;0.80;;
1955;SDS011;978;48.314;11.562;2022-12-26T00:19:48;8.93;;;1.00;;
1955;SDS011;978;48.314;11.562;2022-12-26T00:22:15;9.13;;;1.00;;
1955;SDS011;978;48.314;11.562;2022-12-26T00:24:44;9.90;;;1.53;;
1955;SDS011;978;48.314;11.562;2022-12-26T00:27:12;9.00;;;0.80;;
1955;SDS011;978;48.314;11.562;2022-12-26T00:29:38;9.00;;;1.00;;
1955;SDS011;978;48.314;11.562;2022-12-26T00:32:05;8.80;;;0.80;;
1955;SDS011;978;48.314;11.562;2022-12-26T00:34:33;9.23;;;0.90;;
1955;SDS011;978;48.314;11.562;2022-12-26T00:37:00;9.20;;;0.87;;
1955;SDS011;978;48.314;11.562;2022-12-26T00:39:26;8.97;;;0.90;;
1955;SDS011;978;48.314;11.562;2022-12-26T00:41:54;8.93;;;1.40;;
1955;SDS011;978;48.314;11.562;2022-12-26T00:44:21;9.37;;;1.13;;
1955;SDS011;978;48.314;11.562;2022-12-26T00:46:50;8.80;;;0.80;;
1955;SDS011;978;48.314;11.562;2022-12-26T00:49:17;9.20;;;1.00;;
1955;SDS011;978;48.314;11.562;2022-12-26T00:51:47;8.93;;;1.10;;
1955;SDS011;978;48.314;11.562;2022-12-26T00:54:14;8.60;;;1.00;;
1955;SDS011;978;48.314;11.562;2022-12-26T00:56:40;8.97;;;1.00;;
1955;SDS011;978;48.314;11.562;2022-12-26T00:59:07;8.90;;;0.90;;
1955;SDS011;978;48.314;11.562;2022-12-26T01:01:34;8.63;;;0.80;;
1955;SDS011;978;48.314;11.562;2022-12-26T01:04:02;9.20;;;1.37;;
1955;SDS011;978;48.314;11.562;2022-12-26T01:06:30;10.00;;;1.07;;
1955;SDS011;978;48.314;11.562;2022-12-26T01:09:04;9.07;;;0.90;;
1955;SDS011;978;48.314;11.562;2022-12-26T01:11:33;9.10;;;0.90;;
1955;SDS011;978;48.314;11.562;2022-12-26T01:14:06;8.87;;;1.10;;
1955;SDS011;978;48.314;11.562;2022-12-26T01:16:34;9.33;;;1.10;;
1955;SDS011;978;48.314;11.562;2022-12-26T01:19:03;9.10;;;1.07;;
1955;SDS011;978;48.314;11.562;2022-12-26T01:21:32;9.00;;;1.00;;
1955;SDS011;978;48.314;11.562;2022-12-26T01:24:01;8.53;;;0.90;;
1955;SDS011;978;48.314;11.562;2022-12-26T01:26:29;8.83;;;0.80;;
1955;SDS011;978;48.314;11.562;2022-12-26T01:28:57;9.10;;;1.10;;
1955;SDS011;978;48.314;11.562;2022-12-26T01:31:23;9.20;;;1.23;;
1955;SDS011;978;48.314;11.562;2022-12-26T01:33:52;8.60;;;0.80;;
1955;SDS011;978;48.314;11.562;2022-12-26T01:36:18;8.70;;;0.73;;
1955;SDS011;978;48.314;11.562;2022-12-26T01:38:45;8.97;;;1.20;;
1955;SDS011;978;48.314;11.562;2022-12-26T01:41:13;8.67;;;0.83;;
1955;SDS011;978;48.314;11.562;2022-12-26T01:43:52;11.10;;;1.37;;
1955;SDS011;978;48.314;11.562;2022-12-26T01:46:28;8.60;;;1.00;;
1955;SDS011;978;48.314;11.562;2022-12-26T01:48:59;8.50;;;0.80;;
1955;SDS011;978;48.314;11.562;2022-12-26T01:51:35;8.90;;;0.80;;
1955;SDS011;978;48.314;11.562;2022-12-26T01:54:07;8.70;;;0.70;;
1955;SDS011;978;48.314;11.562;2022-12-26T01:56:38;8.40;;;1.00;;
1955;SDS011;978;48.314;11.562;2022-12-26T01:59:08;9.27;;;1.40;;
1955;SDS011;978;48.314;11.562;2022-12-26T02:01:38;8.60;;;0.90;;
1955;SDS011;978;48.314;11.562;2022-12-26T02:04:07;8.53;;;1.20;;
1955;SDS011;978;48.314;11.562;2022-12-26T02:06:55;10.83;;;2.30;;
1955;SDS011;978;48.314;11.562;2022-12-26T02:09:24;8.47;;;0.80;;
1955;SDS011;978;48.314;11.562;2022-12-26T02:11:53;8.87;;;1.20;;
1955;SDS011;978;48.314;11.562;2022-12-26T02:14:26;8.50;;;0.80;;
1955;SDS011;978;48.314;11.562;2022-12-26T02:16:53;9.43;;;1.00;;
1955;SDS011;978;48.314;11.562;2022-12-26T02:19:25;8.23;;;0.60;;
1955;SDS011;978;48.314;11.562;2022-12-26T02:22:17;7.93;;;0.60;;
1955;SDS011;978;48.314;11.562;2022-12-26T02:25:08;8.20;;;0.80;;
1955;SDS011;978;48.314;11.562;2022-12-26T02:30:49;8.23;;;0.87;;
1955;SDS011;978;48.314;11.562;2022-12-26T02:33:24;9.03;;;1.00;;
1955;SDS011;978;48.314;11.562;2022-12-26T02:36:12;8.67;;;1.00;;
1955;SDS011;978;48.314;11.562;2022-12-26T02:38:53;8.30;;;1.00;;
1955;SDS011;978;48.314;11.562;2022-12-26T02:41:33;8.17;;;0.77;;
1955;SDS011;978;48.314;11.562;2022-12-26T02:44:11;8.60;;;0.90;;
1955;SDS011;978;48.314;11.562;2022-12-26T02:47:04;8.77;;;1.00;;
1955;SDS011;978;48.314;11.562;2022-12-26T02:49:42;8.10;;;0.80;;
1955;SDS011;978;48.314;11.562;2022-12-26T02:52:40;8.20;;;1.13;;
1955;SDS011;978;48.314;11.562;2022-12-26T02:55:36;8.07;;;0.60;;
1955;SDS011;978;48.314;11.562;2022-12-26T02:58:24;9.13;;;1.40;;
1955;SDS011;978;48.314;11.562;2022-12-26T03:01:17;8.30;;;0.80;;
1955;SDS011;978;48.314;11.562;2022-12-26T03:04:10;8.47;;;0.80;;
1955;SDS011;978;48.314;11.562;2022-12-26T03:06:57;9.43;;;1.63;;
1955;SDS011;978;48.314;11.562;2022-12-26T03:09:45;8.53;;;0.60;;
1955;SDS011;978;48.314;11.562;2022-12-26T03:12:33;8.20;;;0.60;;
1955;SDS011;978;48.314;11.562;2022-12-26T03:15:23;10.23;;;1.40;;
1955;SDS011;978;48.314;11.562;2022-12-26T03:18:14;8.37;;;1.03;;
1955;SDS011;978;48.314;11.562;2022-12-26T03:20:43;8.23;;;0.67;;
1955;SDS011;978;48.314;11.562;2022-12-26T03:23:11;8.20;;;0.60;;
1955;SDS011;978;48.314;11.562;2022-12-26T03:25:41;8.00;;;0.67;;
1955;SDS011;978;48.314;11.562;2022-12-26T03:28:28;8.17;;;0.70;;
1955;SDS011;978;48.314;11.562;2022-12-26T03:30:55;8.33;;;0.60;;
1955;SDS011;978;48.314;11.562;2022-12-26T03:33:24;7.90;;;0.60;;
1955;SDS011;978;48.314;11.562;2022-12-26T03:36:13;8.00;;;0.87;;
1955;SDS011;978;48.314;11.562;2022-12-26T03:38:49;7.83;;;0.63;;
1955;SDS011;978;48.314;11.562;2022-12-26T03:41:22;8.90;;;1.43;;
1955;SDS011;978;48.314;11.562;2022-12-26T03:44:15;8.10;;;0.80;;
1955;SDS011;978;48.314;11.562;2022-12-26T03:47:04;8.60;;;1.00;;
1955;SDS011;978;48.314;11.562;2022-12-26T03:49:57;8.10;;;0.60;;
1955;SDS011;978;48.314;11.562;2022-12-26T03:52:49;8.17;;;0.70;;
1955;SDS011;978;48.314;11.562;2022-12-26T03:55:42;8.20;;;0.73;;
1955;SDS011;978;48.314;11.562;2022-12-26T03:58:36;8.50;;;0.70;;
1955;SDS011;978;48.314;11.562;2022-12-26T04:01:26;8.40;;;0.80;;
1955;SDS011;978;48.314;11.562;2022-12-26T04:04:13;8.30;;;0.70;;
1955;SDS011;978;48.314;11.562;2022-12-26T04:07:00;8.20;;;0.60;;
1955;SDS011;978;48.314;11.562;2022-12-26T04:09:53;8.10;;;0.73;;
1955;SDS011;978;48.314;11.562;2022-12-26T04:12:42;8.00;;;0.90;;
1955;SDS011;978;48.314;11.562;2022-12-26T04:15:31;8.30;;;0.77;;
1955;SDS011;978;48.314;11.562;2022-12-26T04:18:22;8.07;;;0.70;;
1955;SDS011;978;48.314;11.562;2022-12-26T04:21:11;8.10;;;1.00;;
1955;SDS011;978;48.314;11.562;2022-12-26T04:23:56;8.80;;;1.27;;
1955;SDS011;978;48.314;11.562;2022-12-26T04:26:46;7.80;;;0.70;;
1955;SDS011;978;48.314;11.562;2022-12-26T04:29:37;8.17;;;0.70;;
1955;SDS011;978;48.314;11.562;2022-12-26T04:32:22;8.70;;;1.20;;
1955;SDS011;978;48.314;11.562;2022-12-26T04:35:17;8.03;;;0.70;;
1955;SDS011;978;48.314;11.562;2022-12-26T04:38:05;9.00;;;1.07;;
1955;SDS011;978;48.314;11.562;2022-12-26T04:40:51;8.10;;;0.87;;
1955;SDS011;978;48.314;11.562;2022-12-26T04:43:45;8.50;;;1.00;;
1955;SDS011;978;48.314;11.562;2022-12-26T04:46:33;8.20;;;0.90;;
1955;SDS011;978;48.314;11.562;2022-12-26T04:49:02;8.07;;;0.70;;
1955;SDS011;978;48.314;11.562;2022-12-26T04:51:48;8.90;;;1.40;;
1955;SDS011;978;48.314;11.562;2022-12-26T04:54:15;7.77;;;0.57;;
1955;SDS011;978;48.314;11.562;2022-12-26T04:56:43;8.00;;;1.00;;
1955;SDS011;978;48.314;11.562;2022-12-26T04:59:12;8.40;;;1.20;;
1955;SDS011;978;48.314;11.562;2022-12-26T05:01:40;7.93;;;0.60;;
1955;SDS011;978;48.314;11.562;2022-12-26T05:04:25;8.03;;;0.93;;
1955;SDS011;978;48.314;11.562;2022-12-26T05:07:11;7.83;;;0.70;;
1955;SDS011;978;48.314;11.562;2022-12-26T05:09:59;7.97;;;0.90;;
1955;SDS011;978;48.314;11.562;2022-12-26T05:12:26;8.10;;;0.80;;
1955;SDS011;978;48.314;11.562;2022-12-26T05:14:54;7.73;;;0.60;;
1955;SDS011;978;48.314;11.562;2022-12-26T05:17:21;7.90;;;0.60;;
1955;SDS011;978;48.314;11.562;2022-12-26T05:20:06;7.90;;;0.50;;
1955;SDS011;978;48.314;11.562;2022-12-26T05:23:10;8.10;;;0.87;;
1955;SDS011;978;48.314;11.562;2022-12-26T05:25:58;8.50;;;1.27;;
1955;SDS011;978;48.314;11.562;2022-12-26T05:28:44;8.10;;;0.70;;
1955;SDS011;978;48.314;11.562;2022-12-26T05:31:16;9.73;;;0.70;;
1955;SDS011;978;48.314;11.562;2022-12-26T05:33:44;7.90;;;0.97;;
1955;SDS011;978;48.314;11.562;2022-12-26T05:36:29;7.83;;;0.70;;
1955;SDS011;978;48.314;11.562;2022-12-26T05:38:59;7.60;;;0.50;;
1955;SDS011;978;48.314;11.562;2022-12-26T05:41:26;8.30;;;1.13;;
1955;SDS011;978;48.314;11.562;2022-12-26T05:43:53;7.60;;;0.60;;
1955;SDS011;978;48.314;11.562;2022-12-26T05:46:21;8.03;;;1.27;;
1955;SDS011;978;48.314;11.562;2022-12-26T05:48:48;7.50;;;0.50;;
1955;SDS011;978;48.314;11.562;2022-12-26T05:51:15;7.67;;;0.50;;
1955;SDS011;978;48.314;11.562;2022-12-26T05:53:45;7.60;;;0.70;;
1955;SDS011;978;48.314;11.562;2022-12-26T05:56:14;7.73;;;0.50;;
1955;SDS011;978;48.314;11.562;2022-12-26T05:58:44;7.57;;;0.60;;
1955;SDS011;978;48.314;11.562;2022-12-26T06:01:12;7.87;;;0.90;;
1955;SDS011;978;48.314;11.562;2022-12-26T06:03:46;7.47;;;0.60;;
1955;SDS011;978;48.314;11.562;2022-12-26T06:06:15;8.33;;;1.10;;
1955;SDS011;978;48.314;11.562;2022-12-26T06:08:44;7.50;;;0.80;;
1955;SDS011;978;48.314;11.562;2022-12-26T06:11:13;7.80;;;0.70;;
1955;SDS011;978;48.314;11.562;2022-12-26T06:13:42;7.57;;;0.70;;
1955;SDS011;978;48.314;11.562;2022-12-26T06:16:12;7.60;;;0.70;;
1955;SDS011;978;48.314;11.562;2022-12-26T06:18:42;7.50;;;0.60;;
1955;SDS011;978;48.314;11.562;2022-12-26T06:21:14;7.33;;;0.70;;
1955;SDS011;978;48.314;11.562;2022-12-26T06:23:45;7.53;;;0.77;;
1955;SDS011;978;48.314;11.562;2022-12-26T06:26:15;10.00;;;1.00;;
1955;SDS011;978;48.314;11.562;2022-12-26T06:28:43;7.47;;;0.80;;
1955;SDS011;978;48.314;11.562;2022-12-26T06:31:13;7.40;;;0.70;;
1955;SDS011;978;48.314;11.562;2022-12-26T06:33:45;7.50;;;0.67;;
1955;SDS011;978;48.314;11.562;2022-12-26T06:36:14;7.80;;;0.80;;
1955;SDS011;978;48.314;11.562;2022-12-26T06:38:43;8.17;;;1.20;;
1955;SDS011;978;48.314;11.562;2022-12-26T06:41:12;7.50;;;1.00;;
1955;SDS011;978;48.314;11.562;2022-12-26T06:43:42;7.60;;;0.77;;
1955;SDS011;978;48.314;11.562;2022-12-26T06:46:13;7.80;;;1.33;;
1955;SDS011;978;48.314;11.562;2022-12-26T06:48:44;7.30;;;0.80;;
1955;SDS011;978;48.314;11.562;2022-12-26T06:51:12;7.40;;;0.60;;
1955;SDS011;978;48.314;11.562;2022-12-26T06:53:42;7.43;;;0.90;;
1955;SDS011;978;48.314;11.562;2022-12-26T06:56:10;7.30;;;0.60;;
1955;SDS011;978;48.314;11.562;2022-12-26T06:58:38;7.50;;;0.80;;
1955;SDS011;978;48.314;11.562;2022-12-26T07:01:06;7.37;;;0.80;;
1955;SDS011;978;48.314;11.562;2022-12-26T07:03:34;7.10;;;0.50;;
1955;SDS011;978;48.314;11.562;2022-12-26T07:06:03;7.13;;;0.60;;
1955;SDS011;978;48.314;11.562;2022-12-26T07:08:31;7.50;;;1.10;;
1955;SDS011;978;48.314;11.562;2022-12-26T07:10:58;7.57;;;0.60;;
1955;SDS011;978;48.314;11.562;2022-12-26T07:13:25;7.33;;;0.73;;
1955;SDS011;978;48.314;11.562;2022-12-26T07:15:51;7.70;;;0.93;;
1955;SDS011;978;48.314;11.562;2022-12-26T07:18:19;7.20;;;0.70;;
1955;SDS011;978;48.314;11.562;2022-12-26T07:20:47;7.40;;;0.60;;
1955;SDS011;978;48.314;11.562;2022-12-26T07:23:17;7.70;;;1.00;;
1955;SDS011;978;48.314;11.562;2022-12-26T07:25:45;7.10;;;0.50;;
1955;SDS011;978;48.314;11.562;2022-12-26T07:28:14;7.23;;;0.60;;
1955;SDS011;978;48.314;11.562;2022-12-26T07:30:45;7.23;;;0.60;;
1955;SDS011;978;48.314;11.562;2022-12-26T07:33:15;7.33;;;0.60;;
1955;SDS011;978;48.314;11.562;2022-12-26T07:35:42;7.30;;;0.77;;
1955;SDS011;978;48.314;11.562;2022-12-26T07:38:11;7.50;;;0.97;;
1955;SDS011;978;48.314;11.562;2022-12-26T07:40:39;7.33;;;0.53;;
1955;SDS011;978;48.314;11.562;2022-12-26T07:43:06;7.57;;;0.80;;
1955;SDS011;978;48.314;11.562;2022-12-26T07:45:32;7.40;;;0.80;;
1955;SDS011;978;48.314;11.562;2022-12-26T07:47:59;7.33;;;0.77;;
1955;SDS011;978;48.314;11.562;2022-12-26T07:50:26;7.00;;;0.60;;
1955;SDS011;978;48.314;11.562;2022-12-26T07:52:53;7.07;;;0.70;;
1955;SDS011;978;48.314;11.562;2022-12-26T07:55:21;7.23;;;0.83;;
1955;SDS011;978;48.314;11.562;2022-12-26T07:57:50;7.47;;;0.90;;
1955;SDS011;978;48.314;11.562;2022-12-26T08:00:19;7.27;;;0.70;;
1955;SDS011;978;48.314;11.562;2022-12-26T08:02:47;6.83;;;0.60;;
1955;SDS011;978;48.314;11.562;2022-12-26T08:05:18;7.10;;;0.70;;
1955;SDS011;978;48.314;11.562;2022-12-26T08:07:46;7.20;;;0.70;;
1955;SDS011;978;48.314;11.562;2022-12-26T08:10:14;7.80;;;1.00;;
1955;SDS011;978;48.314;11.562;2022-12-26T08:12:41;8.60;;;1.37;;
1955;SDS011;978;48.314;11.562;2022-12-26T08:15:11;7.63;;;1.53;;
1955;SDS011;978;48.314;11.562;2022-12-26T08:17:38;7.07;;;0.80;;
1955;SDS011;978;48.314;11.562;2022-12-26T08:20:05;7.90;;;1.40;;
1955;SDS011;978;48.314;11.562;2022-12-26T08:22:32;7.10;;;0.50;;
1955;SDS011;978;48.314;11.562;2022-12-26T08:24:59;7.07;;;0.50;;
1955;SDS011;978;48.314;11.562;2022-12-26T08:27:26;7.13;;;0.80;;
1955;SDS011;978;48.314;11.562;2022-12-26T08:29:54;7.37;;;1.10;;
1955;SDS011;978;48.314;11.562;2022-12-26T08:32:26;7.47;;;0.90;;
1955;SDS011;978;48.314;11.562;2022-12-26T08:34:55;7.50;;;0.73;;
1955;SDS011;978;48.314;11.562;2022-12-26T08:37:23;7.17;;;0.73;;
1955;SDS011;978;48.314;11.562;2022-12-26T08:39:51;7.13;;;0.63;;
1955;SDS011;978;48.314;11.562;2022-12-26T08:42:19;7.03;;;0.70;;
1955;SDS011;978;48.314;11.562;2022-12-26T08:44:50;7.63;;;0.93;;
1955;SDS011;978;48.314;11.562;2022-12-26T08:47:19;7.40;;;0.97;;
1955;SDS011;978;48.314;11.562;2022-12-26T08:49:56;7.03;;;0.97;;
1955;SDS011;978;48.314;11.562;2022-12-26T08:52:25;7.00;;;0.63;;
1955;SDS011;978;48.314;11.562;2022-12-26T08:54:55;7.00;;;0.50;;
1955;SDS011;978;48.314;11.562;2022-12-26T08:57:23;7.53;;;1.20;;
1955;SDS011;978;48.314;11.562;2022-12-26T08:59:52;7.40;;;0.93;;
1955;SDS011;978;48.314;11.562;2022-12-26T09:02:20;7.13;;;0.60;;
1955;SDS011;978;48.314;11.562;2022-12-26T09:04:57;7.00;;;0.70;;
1955;SDS011;978;48.314;11.562;2022-12-26T09:07:25;6.90;;;0.60;;
1955;SDS011;978;48.314;11.562;2022-12-26T09:09:55;7.03;;;0.70;;
1955;SDS011;978;48.314;11.562;2022-12-26T09:12:25;6.90;;;0.60;;
1955;SDS011;978;48.314;11.562;2022-12-26T09:14:53;7.13;;;0.93;;
1955;SDS011;978;48.314;11.562;2022-12-26T09:17:21;7.10;;;0.70;;
1955;SDS011;978;48.314;11.562;2022-12-26T09:19:57;7.30;;;1.03;;
1955;SDS011;978;48.314;11.562;2022-12-26T09:22:25;7.00;;;0.60;;
1955;SDS011;978;48.314;11.562;2022-12-26T09:25:10;7.30;;;1.10;;
1955;SDS011;978;48.314;11.562;2022-12-26T09:27:36;7.70;;;1.43;;
1955;SDS011;978;48.314;11.562;2022-12-26T09:30:03;7.53;;;1.57;;
1955;SDS011;978;48.314;11.562;2022-12-26T09:32:31;7.30;;;1.10;;
1955;SDS011;978;48.314;11.562;2022-12-26T09:35:00;7.93;;;0.60;;
1955;SDS011;978;48.314;11.562;2022-12-26T09:37:27;7.30;;;1.30;;
1955;SDS011;978;48.314;11.562;2022-12-26T09:39:55;7.30;;;1.00;;
1955;SDS011;978;48.314;11.562;2022-12-26T09:42:26;7.20;;;0.93;;
1955;SDS011;978;48.314;11.562;2022-12-26T09:45:03;6.97;;;0.70;;
1955;SDS011;978;48.314;11.562;2022-12-26T09:47:39;7.30;;;0.80;;
1955;SDS011;978;48.314;11.562;2022-12-26T09:50:13;7.00;;;0.50;;
1955;SDS011;978;48.314;11.562;2022-12-26T09:52:48;7.17;;;0.93;;
1955;SDS011;978;48.314;11.562;2022-12-26T09:55:30;7.10;;;0.67;;
1955;SDS011;978;48.314;11.562;2022-12-26T09:58:10;7.30;;;0.90;;
1955;SDS011;978;48.314;11.562;2022-12-26T10:00:44;7.70;;;1.13;;
1955;SDS011;978;48.314;11.562;2022-12-26T10:03:18;7.60;;;0.83;;
1955;SDS011;978;48.314;11.562;2022-12-26T10:05:52;7.80;;;1.33;;
1955;SDS011;978;48.314;11.562;2022-12-26T10:08:28;8.17;;;1.00;;
1955;SDS011;978;48.314;11.562;2022-12-26T10:11:06;7.30;;;0.60;;
1955;SDS011;978;48.314;11.562;2022-12-26T10:13:38;7.23;;;0.60;;
1955;SDS011;978;48.314;11.562;2022-12-26T10:16:14;7.50;;;1.00;;
1955;SDS011;978;48.314;11.562;2022-12-26T10:18:48;8.30;;;0.83;;
1955;SDS011;978;48.314;11.562;2022-12-26T10:21:34;7.30;;;0.83;;
1955;SDS011;978;48.314;11.562;2022-12-26T10:24:10;7.20;;;0.50;;
1955;SDS011;978;48.314;11.562;2022-12-26T10:26:41;7.20;;;0.67;;
1955;SDS011;978;48.314;11.562;2022-12-26T10:29:12;7.77;;;1.07;;
1955;SDS011;978;48.314;11.562;2022-12-26T10:31:45;7.40;;;0.73;;
1955;SDS011;978;48.314;11.562;2022-12-26T10:34:16;7.80;;;1.17;;
1955;SDS011;978;48.314;11.562;2022-12-26T10:36:49;7.13;;;0.70;;
1955;SDS011;978;48.314;11.562;2022-12-26T10:39:24;7.13;;;0.50;;
1955;SDS011;978;48.314;11.562;2022-12-26T10:41:56;7.10;;;0.60;;
1955;SDS011;978;48.314;11.562;2022-12-26T10:44:27;7.30;;;0.70;;
1955;SDS011;978;48.314;11.562;2022-12-26T10:47:01;7.30;;;0.90;;
1955;SDS011;978;48.314;11.562;2022-12-26T10:49:41;7.50;;;0.90;;
1955;SDS011;978;48.314;11.562;2022-12-26T10:52:11;7.20;;;0.70;;
1955;SDS011;978;48.314;11.562;2022-12-26T10:54:38;7.20;;;0.60;;
1955;SDS011;978;48.314;11.562;2022-12-26T10:57:05;7.07;;;0.57;;
1955;SDS011;978;48.314;11.562;2022-12-26T10:59:39;6.87;;;0.50;;
1955;SDS011;978;48.314;11.562;2022-12-26T11:02:14;7.30;;;0.77;;
1955;SDS011;978;48.314;11.562;2022-12-26T11:05:02;7.20;;;0.63;;
1955;SDS011;978;48.314;11.562;2022-12-26T11:07:35;7.40;;;1.03;;
1955;SDS011;978;48.314;11.562;2022-12-26T11:10:04;7.23;;;0.60;;
1955;SDS011;978;48.314;11.562;2022-12-26T11:12:39;7.47;;;1.00;;
1955;SDS011;978;48.314;11.562;2022-12-26T11:15:16;7.80;;;0.70;;
1955;SDS011;978;48.314;11.562;2022-12-26T11:17:46;7.10;;;0.60;;
1955;SDS011;978;48.314;11.562;2022-12-26T11:25:56;7.40;;;1.10;;
1955;SDS011;978;48.314;11.562;2022-12-26T11:28:27;7.40;;;0.70;;
1955;SDS011;978;48.314;11.562;2022-12-26T11:31:02;7.60;;;0.80;;
1955;SDS011;978;48.314;11.562;2022-12-26T11:33:34;7.20;;;0.70;;
1955;SDS011;978;48.314;11.562;2022-12-26T11:36:08;7.37;;;0.70;;
1955;SDS011;978;48.314;11.562;2022-12-26T11:38:48;7.00;;;0.50;;
1955;SDS011;978;48.314;11.562;2022-12-26T11:41:31;8.37;;;1.33;;
1955;SDS011;978;48.314;11.562;2022-12-26T11:44:12;6.93;;;0.60;;
1955;SDS011;978;48.314;11.562;2022-12-26T11:46:50;6.77;;;0.60;;
1955;SDS011;978;48.314;11.562;2022-12-26T11:49:23;7.20;;;1.37;;
1955;SDS011;978;48.314;11.562;2022-12-26T11:51:54;6.67;;;0.70;;
1955;SDS011;978;48.314;11.562;2022-12-26T11:54:26;6.60;;;0.60;;
1955;SDS011;978;48.314;11.562;2022-12-26T11:57:08;6.83;;;1.00;;
1955;SDS011;978;48.314;11.562;2022-12-26T11:59:38;6.43;;;0.50;;
1955;SDS011;978;48.314;11.562;2022-12-26T12:02:15;6.60;;;0.80;;
1955;SDS011;978;48.314;11.562;2022-12-26T12:04:44;6.40;;;0.50;;
1955;SDS011;978;48.314;11.562;2022-12-26T12:07:14;6.47;;;0.60;;
1955;SDS011;978;48.314;11.562;2022-12-26T12:09:49;6.40;;;0.60;;
1955;SDS011;978;48.314;11.562;2022-12-26T12:12:27;6.50;;;0.90;;
1955;SDS011;978;48.314;11.562;2022-12-26T12:15:02;6.80;;;0.93;;
1955;SDS011;978;48.314;11.562;2022-12-26T12:17:38;6.40;;;0.50;;
1955;SDS011;978;48.314;11.562;2022-12-26T12:20:18;6.40;;;0.50;;
1955;SDS011;978;48.314;11.562;2022-12-26T12:23:09;6.50;;;0.60;;
1955;SDS011;978;48.314;11.562;2022-12-26T12:25:52;6.60;;;0.70;;
1955;SDS011;978;48.314;11.562;2022-12-26T12:28:30;6.80;;;0.97;;
1955;SDS011;978;48.314;11.562;2022-12-26T12:31:06;6.30;;;0.60;;
1955;SDS011;978;48.314;11.562;2022-12-26T12:33:41;6.30;;;0.50;;
1955;SDS011;978;48.314;11.562;2022-12-26T12:36:15;6.60;;;1.07;;
1955;SDS011;978;48.314;11.562;2022-12-26T12:38:52;6.20;;;0.50;;
1955;SDS011;978;48.314;11.562;2022-12-26T12:41:41;6.60;;;0.60;;
1955;SDS011;978;48.314;11.562;2022-12-26T12:44:28;6.30;;;0.60;;
1955;SDS011;978;48.314;11.562;2022-12-26T12:47:13;6.27;;;0.60;;
1955;SDS011;978;48.314;11.562;2022-12-26T12:49:51;6.17;;;0.50;;
1955;SDS011;978;48.314;11.562;2022-12-26T12:52:29;6.40;;;1.00;;
1955;SDS011;978;48.314;11.562;2022-12-26T12:55:20;8.30;;;1.17;;
1955;SDS011;978;48.314;11.562;2022-12-26T12:57:56;6.23;;;0.50;;
1955;SDS011;978;48.314;11.562;2022-12-26T13:00:31;6.40;;;0.97;;
1955;SDS011;978;48.314;11.562;2022-12-26T13:03:08;6.57;;;0.97;;
1955;SDS011;978;48.314;11.562;2022-12-26T13:05:41;6.30;;;0.73;;
1955;SDS011;978;48.314;11.562;2022-12-26T13:08:13;7.00;;;0.70;;
1955;SDS011;978;48.314;11.562;2022-12-26T13:10:45;6.30;;;0.73;;
1955;SDS011;978;48.314;11.562;2022-12-26T13:13:18;6.33;;;0.60;;
1955;SDS011;978;48.314;11.562;2022-12-26T13:15:50;6.20;;;0.60;;
1955;SDS011;978;48.314;11.562;2022-12-26T13:18:21;6.57;;;0.77;;
1955;SDS011;978;48.314;11.562;2022-12-26T13:20:52;6.60;;;1.13;;
1955;SDS011;978;48.314;11.562;2022-12-26T13:23:21;6.40;;;0.60;;
1955;SDS011;978;48.314;11.562;2022-12-26T13:26:13;6.47;;;0.70;;
1955;SDS011;978;48.314;11.562;2022-12-26T13:28:47;6.30;;;0.60;;
1955;SDS011;978;48.314;11.562;2022-12-26T13:31:23;6.27;;;0.50;;
1955;SDS011;978;48.314;11.562;2022-12-26T13:33:50;6.33;;;0.43;;
1955;SDS011;978;48.314;11.562;2022-12-26T13:36:32;6.30;;;0.67;;
1955;SDS011;978;48.314;11.562;2022-12-26T13:41:53;6.20;;;0.40;;
1955;SDS011;978;48.314;11.562;2022-12-26T13:44:40;6.30;;;0.40;;
1955;SDS011;978;48.314;11.562;2022-12-26T13:49:57;6.57;;;0.80;;
1955;SDS011;978;48.314;11.562;2022-12-26T13:52:31;6.40;;;0.70;;
1955;SDS011;978;48.314;11.562;2022-12-26T13:55:27;6.40;;;0.90;;
1955;SDS011;978;48.314;11.562;2022-12-26T13:58:13;6.50;;;0.73;;
1955;SDS011;978;48.314;11.562;2022-12-26T14:00:53;6.50;;;1.00;;
1955;SDS011;978;48.314;11.562;2022-12-26T14:03:35;6.73;;;0.77;;
1955;SDS011;978;48.314;11.562;2022-12-26T14:06:53;6.37;;;0.50;;
1955;SDS011;978;48.314;11.562;2022-12-26T14:09:36;6.33;;;0.40;;
1955;SDS011;978;48.314;11.562;2022-12-26T14:12:14;6.60;;;0.90;;
1955;SDS011;978;48.314;11.562;2022-12-26T14:15:02;6.40;;;0.80;;
1955;SDS011;978;48.314;11.562;2022-12-26T14:17:45;7.13;;;0.97;;
1955;SDS011;978;48.314;11.562;2022-12-26T14:20:24;6.80;;;0.70;;
1955;SDS011;978;48.314;11.562;2022-12-26T14:23:02;6.27;;;0.50;;
1955;SDS011;978;48.314;11.562;2022-12-26T14:25:46;6.20;;;0.50;;
1955;SDS011;978;48.314;11.562;2022-12-26T14:28:19;6.50;;;1.10;;
1955;SDS011;978;48.314;11.562;2022-12-26T14:30:54;6.80;;;0.77;;
1955;SDS011;978;48.314;11.562;2022-12-26T14:33:37;6.20;;;0.57;;
1955;SDS011;978;48.314;11.562;2022-12-26T14:36:18;6.17;;;0.47;;
1955;SDS011;978;48.314;11.562;2022-12-26T14:38:51;6.40;;;1.00;;
1955;SDS011;978;48.314;11.562;2022-12-26T14:41:21;6.43;;;0.67;;
1955;SDS011;978;48.314;11.562;2022-12-26T14:44:14;6.17;;;0.40;;
1955;SDS011;978;48.314;11.562;2022-12-26T14:47:02;6.50;;;0.73;;
1955;SDS011;978;48.314;11.562;2022-12-26T14:49:40;6.30;;;0.40;;
1955;SDS011;978;48.314;11.562;2022-12-26T14:52:31;6.40;;;0.67;;
1955;SDS011;978;48.314;11.562;2022-12-26T14:58:24;6.30;;;0.60;;
1955;SDS011;978;48.314;11.562;2022-12-26T15:00:55;6.47;;;0.63;;
1955;SDS011;978;48.314;11.562;2022-12-26T15:03:45;6.30;;;0.63;;
1955;SDS011;978;48.314;11.562;2022-12-26T15:15:27;7.00;;;0.67;;
1955;SDS011;978;48.314;11.562;2022-12-26T15:18:07;6.30;;;0.70;;
1955;SDS011;978;48.314;11.562;2022-12-26T15:21:06;6.33;;;0.77;;
1955;SDS011;978;48.314;11.562;2022-12-26T15:24:05;6.37;;;0.70;;
1955;SDS011;978;48.314;11.562;2022-12-26T15:27:06;6.90;;;0.80;;
1955;SDS011;978;48.314;11.562;2022-12-26T15:29:55;6.40;;;0.70;;
1955;SDS011;978;48.314;11.562;2022-12-26T15:32:38;6.17;;;0.50;;
1955;SDS011;978;48.314;11.562;2022-12-26T15:35:20;6.30;;;0.57;;
1955;SDS011;978;48.314;11.562;2022-12-26T15:37:55;6.20;;;0.57;;
1955;SDS011;978;48.314;11.562;2022-12-26T15:40:36;6.27;;;0.80;;
1955;SDS011;978;48.314;11.562;2022-12-26T15:45:59;6.50;;;0.70;;
1955;SDS011;978;48.314;11.562;2022-12-26T15:48:39;6.40;;;0.87;;
1955;SDS011;978;48.314;11.562;2022-12-26T15:51:20;6.20;;;0.50;;
1955;SDS011;978;48.314;11.562;2022-12-26T15:53:58;6.00;;;0.47;;
1955;SDS011;978;48.314;11.562;2022-12-26T15:56:46;6.03;;;0.43;;
1955;SDS011;978;48.314;11.562;2022-12-26T15:59:38;6.20;;;0.60;;
1955;SDS011;978;48.314;11.562;2022-12-26T16:02:28;6.17;;;0.57;;
1955;SDS011;978;48.314;11.562;2022-12-26T16:05:03;6.10;;;0.50;;
1955;SDS011;978;48.314;11.562;2022-12-26T16:07:48;6.07;;;0.57;;
1955;SDS011;978;48.314;11.562;2022-12-26T16:10:30;6.30;;;0.80;;
1955;SDS011;978;48.314;11.562;2022-12-26T16:13:00;6.10;;;0.50;;
1955;SDS011;978;48.314;11.562;2022-12-26T16:15:32;6.07;;;0.50;;
1955;SDS011;978;48.314;11.562;2022-12-26T16:18:12;6.00;;;0.50;;
1955;SDS011;978;48.314;11.562;2022-12-26T16:20:40;6.30;;;0.87;;
1955;SDS011;978;48.314;11.562;2022-12-26T16:23:27;6.20;;;0.90;;
1955;SDS011;978;48.314;11.562;2022-12-26T16:25:57;6.03;;;0.63;;
1955;SDS011;978;48.314;11.562;2022-12-26T16:28:25;6.17;;;1.03;;
1955;SDS011;978;48.314;11.562;2022-12-26T16:30:57;6.00;;;0.50;;
1955;SDS011;978;48.314;11.562;2022-12-26T16:33:24;6.00;;;0.43;;
1955;SDS011;978;48.314;11.562;2022-12-26T16:35:55;6.00;;;0.60;;